createdAt,value
2019-05-11T00:00:17.951Z,0.00
2019-05-11T00:01:17.848Z,0.00
2019-05-11T00:02:18.138Z,0.00
2019-05-11T00:03:18.837Z,0.00
2019-05-11T00:04:18.176Z,0.00
2019-05-11T00:05:18.516Z,0.21
2019-05-11T00:06:18.014Z,0.14
2019-05-11T00:07:18.543Z,0.28
2019-05-11T00:08:17.853Z,0.55
2019-05-11T00:09:18.205Z,0.90
2019-05-11T00:10:18.842Z,0.09
2019-05-11T00:11:18.330Z,0.00
2019-05-11T00:12:17.858Z,0.00
2019-05-11T00:13:18.262Z,0.00
2019-05-11T00:14:17.799Z,0.00
2019-05-11T00:15:17.856Z,0.00
2019-05-11T00:16:19.200Z,0.24
2019-05-11T00:17:20.766Z,0.03
2019-05-11T00:18:18.216Z,0.00
2019-05-11T00:19:17.820Z,0.09
2019-05-11T00:20:18.819Z,0.09
2019-05-11T00:21:17.909Z,0.01
2019-05-11T00:22:17.835Z,0.00
2019-05-11T00:23:17.810Z,0.77
2019-05-11T00:24:17.929Z,0.90
2019-05-11T00:25:19.223Z,0.00
2019-05-11T00:26:18.475Z,0.30
2019-05-11T00:27:17.774Z,1.28
2019-05-11T00:28:18.304Z,0.50
2019-05-11T00:29:18.282Z,0.37
2019-05-11T00:30:17.782Z,0.06
2019-05-11T00:31:19.230Z,0.00
2019-05-11T00:32:17.847Z,0.00
2019-05-11T00:33:18.145Z,0.79
2019-05-11T00:34:17.921Z,0.24
2019-05-11T00:35:18.165Z,0.38
2019-05-11T00:36:17.815Z,1.15
2019-05-11T00:37:17.898Z,0.92
2019-05-11T00:38:17.850Z,1.05
2019-05-11T00:39:17.939Z,0.87
2019-05-11T00:40:17.892Z,0.74
2019-05-11T00:41:17.898Z,1.36
2019-05-11T00:42:18.142Z,0.43
2019-05-11T00:43:17.874Z,0.14
2019-05-11T00:44:18.834Z,1.12
2019-05-11T00:45:18.159Z,0.36
2019-05-11T00:46:18.213Z,0.29
2019-05-11T00:47:18.492Z,0.71
2019-05-11T00:48:17.825Z,0.22
2019-05-11T00:49:17.903Z,0.07
2019-05-11T00:50:17.901Z,0.01
2019-05-11T00:51:18.303Z,0.12
2019-05-11T00:52:17.973Z,0.00
2019-05-11T00:53:17.881Z,0.00
2019-05-11T00:54:18.886Z,0.00
2019-05-11T00:55:17.990Z,0.01
2019-05-11T00:56:18.228Z,0.01
2019-05-11T00:57:18.188Z,0.00
2019-05-11T00:58:17.899Z,0.00
2019-05-11T00:59:21.719Z,0.00
2019-05-11T01:00:17.858Z,0.00
2019-05-11T01:01:18.249Z,0.00
2019-05-11T01:02:17.877Z,0.00
2019-05-11T01:03:21.054Z,0.00
2019-05-11T01:04:18.165Z,0.00
2019-05-11T01:05:18.367Z,0.00
2019-05-11T01:06:17.909Z,0.11
2019-05-11T01:07:17.997Z,0.48
2019-05-11T01:08:18.509Z,0.00
2019-05-11T01:09:17.949Z,0.00
2019-05-11T01:10:25.416Z,0.00
2019-05-11T01:11:18.615Z,0.00
2019-05-11T01:12:18.186Z,0.00
2019-05-11T01:13:17.826Z,0.00
2019-05-11T01:14:17.887Z,0.00
2019-05-11T01:15:17.859Z,0.00
2019-05-11T01:16:17.847Z,0.00
2019-05-11T01:17:17.985Z,0.00
2019-05-11T01:18:17.881Z,0.00
2019-05-11T01:19:17.815Z,0.00
2019-05-11T01:20:18.810Z,0.00
2019-05-11T01:21:17.899Z,0.00
2019-05-11T01:22:17.849Z,0.00
2019-05-11T01:23:17.935Z,0.00
2019-05-11T01:24:17.895Z,0.00
2019-05-11T01:25:17.832Z,0.00
2019-05-11T01:26:17.953Z,0.18
2019-05-11T01:27:18.343Z,0.13
2019-05-11T01:28:17.881Z,0.00
2019-05-11T01:29:17.946Z,0.00
2019-05-11T01:30:18.815Z,0.00
2019-05-11T01:31:17.891Z,0.07
2019-05-11T01:32:17.919Z,0.07
2019-05-11T01:33:17.888Z,0.00
2019-05-11T01:34:18.123Z,0.00
2019-05-11T01:35:17.947Z,0.00
2019-05-11T01:36:18.221Z,0.00
2019-05-11T01:37:17.879Z,0.00
2019-05-11T01:38:17.929Z,0.00
2019-05-11T01:39:18.535Z,0.00
2019-05-11T01:40:17.878Z,0.00
2019-05-11T01:41:17.959Z,0.00
2019-05-11T01:42:18.303Z,0.00
2019-05-11T01:43:18.587Z,0.00
2019-05-11T01:44:17.951Z,0.00
2019-05-11T01:45:17.903Z,0.00
2019-05-11T01:46:18.215Z,0.00
2019-05-11T01:47:18.071Z,0.00
2019-05-11T01:48:18.163Z,0.00
2019-05-11T01:49:17.900Z,0.00
2019-05-11T01:50:17.990Z,0.00
2019-05-11T01:51:18.004Z,0.00
2019-05-11T01:52:17.877Z,0.00
2019-05-11T01:53:18.131Z,0.02
2019-05-11T01:54:18.649Z,0.00
2019-05-11T01:55:17.889Z,0.00
2019-05-11T01:56:17.988Z,0.04
2019-05-11T01:57:17.941Z,0.00
2019-05-11T01:58:17.953Z,0.01
2019-05-11T01:59:18.241Z,0.00
2019-05-11T02:00:18.363Z,0.00
2019-05-11T02:01:18.175Z,0.00
2019-05-11T02:02:18.208Z,0.00
2019-05-11T02:03:17.936Z,0.00
2019-05-11T02:04:17.881Z,0.00
2019-05-11T02:05:17.859Z,0.00
2019-05-11T02:06:17.983Z,0.06
2019-05-11T02:07:18.251Z,0.05
2019-05-11T02:08:18.057Z,0.00
2019-05-11T02:09:18.651Z,0.00
2019-05-11T02:10:17.904Z,0.00
2019-05-11T02:11:20.897Z,0.00
2019-05-11T02:12:17.931Z,0.00
2019-05-11T02:13:18.129Z,0.00
2019-05-11T02:14:17.875Z,0.05
2019-05-11T02:15:18.310Z,0.05
2019-05-11T02:16:18.566Z,0.00
2019-05-11T02:17:17.994Z,0.00
2019-05-11T02:18:17.954Z,0.00
2019-05-11T02:19:18.530Z,0.00
2019-05-11T02:20:18.632Z,0.00
2019-05-11T02:21:18.014Z,0.00
2019-05-11T02:22:17.918Z,0.00
2019-05-11T02:23:18.416Z,0.00
2019-05-11T02:24:18.083Z,0.00
2019-05-11T02:25:17.949Z,0.00
2019-05-11T02:26:18.785Z,0.00
2019-05-11T02:27:18.008Z,0.00
2019-05-11T02:28:18.158Z,0.00
2019-05-11T02:29:18.412Z,0.00
2019-05-11T02:30:17.979Z,0.00
2019-05-11T02:31:18.023Z,0.00
2019-05-11T02:32:17.906Z,0.00
2019-05-11T02:33:17.971Z,0.00
2019-05-11T02:34:18.289Z,0.00
2019-05-11T02:35:18.470Z,0.00
2019-05-11T02:36:18.034Z,0.00
2019-05-11T02:37:17.968Z,0.51
2019-05-11T02:38:17.942Z,0.00
2019-05-11T02:39:18.949Z,0.00
2019-05-11T02:40:18.305Z,0.00
2019-05-11T02:41:34.717Z,0.29
2019-05-11T02:42:18.059Z,0.00
2019-05-11T02:43:20.781Z,0.00
2019-05-11T02:44:18.368Z,0.00
2019-05-11T02:45:17.915Z,0.00
2019-05-11T02:46:18.025Z,0.59
2019-05-11T02:47:18.551Z,0.22
2019-05-11T02:48:18.709Z,0.23
2019-05-11T02:49:18.616Z,0.04
2019-05-11T02:50:18.177Z,0.00
2019-05-11T02:51:18.362Z,0.00
2019-05-11T02:52:18.309Z,0.00
2019-05-11T02:53:18.042Z,0.00
2019-05-11T02:54:18.273Z,0.00
2019-05-11T02:55:18.034Z,0.00
2019-05-11T02:56:17.962Z,0.00
2019-05-11T02:57:18.577Z,0.00
2019-05-11T02:58:18.024Z,0.00
2019-05-11T02:59:17.974Z,0.00
2019-05-11T03:00:18.911Z,0.00
2019-05-11T03:01:18.036Z,0.00
2019-05-11T03:02:17.959Z,0.00
2019-05-11T03:03:18.786Z,0.00
2019-05-11T03:04:18.330Z,0.00
2019-05-11T03:05:17.989Z,0.00
2019-05-11T03:06:18.734Z,0.00
2019-05-11T03:07:18.077Z,0.00
2019-05-11T03:08:18.567Z,0.00
2019-05-11T03:09:18.376Z,0.00
2019-05-11T03:10:18.003Z,0.00
2019-05-11T03:11:18.905Z,0.00
2019-05-11T03:12:18.445Z,0.00
2019-05-11T03:13:18.360Z,0.00
2019-05-11T03:14:18.079Z,0.34
2019-05-11T03:15:17.968Z,0.34
2019-05-11T03:16:19.086Z,0.06
2019-05-11T03:17:18.007Z,0.25
2019-05-11T03:18:17.968Z,0.00
2019-05-11T03:19:18.715Z,0.22
2019-05-11T03:20:18.205Z,0.95
2019-05-11T03:21:18.301Z,0.31
2019-05-11T03:22:20.587Z,0.77
2019-05-11T03:23:18.223Z,0.86
2019-05-11T03:24:17.966Z,0.62
2019-05-11T03:25:18.050Z,0.63
2019-05-11T03:26:19.038Z,0.62
2019-05-11T03:27:17.986Z,0.07
2019-05-11T03:28:18.042Z,0.70
2019-05-11T03:29:17.997Z,0.45
2019-05-11T03:30:18.332Z,0.04
2019-05-11T03:31:18.097Z,0.20
2019-05-11T03:32:18.427Z,0.00
2019-05-11T03:33:17.960Z,0.12
2019-05-11T03:34:18.297Z,0.00
2019-05-11T03:35:18.041Z,0.00
2019-05-11T03:36:18.025Z,0.61
2019-05-11T03:37:18.591Z,0.00
2019-05-11T03:38:18.110Z,0.20
2019-05-11T03:39:18.348Z,0.08
2019-05-11T03:40:18.063Z,0.62
2019-05-11T03:41:18.915Z,0.59
2019-05-11T03:42:18.701Z,0.31
2019-05-11T03:43:18.418Z,0.31
2019-05-11T03:44:18.295Z,0.50
2019-05-11T03:45:19.062Z,0.85
2019-05-11T03:46:19.165Z,0.00
2019-05-11T03:47:18.771Z,0.30
2019-05-11T03:48:18.342Z,0.01
2019-05-11T03:49:17.967Z,0.27
2019-05-11T03:50:18.073Z,0.32
2019-05-11T03:51:18.365Z,0.02
2019-05-11T03:52:18.955Z,0.15
2019-05-11T03:53:18.825Z,0.20
2019-05-11T03:54:18.033Z,0.00
2019-05-11T03:55:18.653Z,0.60
2019-05-11T03:56:19.456Z,0.95
2019-05-11T03:57:18.360Z,0.53
2019-05-11T03:58:17.973Z,0.00
2019-05-11T03:59:18.061Z,0.09
2019-05-11T04:00:18.030Z,0.03
2019-05-11T04:01:19.041Z,0.00
2019-05-11T04:02:18.160Z,0.02
2019-05-11T04:03:18.641Z,0.11
2019-05-11T04:04:18.541Z,0.07
2019-05-11T04:05:18.067Z,0.06
2019-05-11T04:06:18.271Z,0.02
2019-05-11T04:07:18.332Z,0.00
2019-05-11T04:08:18.076Z,0.00
2019-05-11T04:09:18.651Z,0.00
2019-05-11T04:10:18.241Z,0.09
2019-05-11T04:11:19.153Z,0.00
2019-05-11T04:12:34.061Z,0.02
2019-05-11T04:13:17.984Z,0.00
2019-05-11T04:14:18.075Z,0.01
2019-05-11T04:15:18.492Z,0.16
2019-05-11T04:16:18.132Z,0.00
2019-05-11T04:17:18.102Z,0.00
2019-05-11T04:18:18.768Z,0.00
2019-05-11T04:19:18.342Z,0.00
2019-05-11T04:20:18.082Z,0.07
2019-05-11T04:21:18.706Z,0.45
2019-05-11T04:22:18.041Z,0.00
2019-05-11T04:23:18.269Z,0.09
2019-05-11T04:24:18.410Z,0.52
2019-05-11T04:25:20.629Z,0.43
2019-05-11T04:26:18.125Z,0.00
2019-05-11T04:27:19.646Z,0.18
2019-05-11T04:28:19.076Z,0.50
2019-05-11T04:29:20.581Z,0.13
2019-05-11T04:30:18.417Z,0.07
2019-05-11T04:31:18.055Z,0.03
2019-05-11T04:32:18.004Z,0.00
2019-05-11T04:33:18.702Z,0.00
2019-05-11T04:34:18.476Z,0.05
2019-05-11T04:35:21.226Z,0.04
2019-05-11T04:36:18.408Z,0.00
2019-05-11T04:37:18.065Z,0.00
2019-05-11T04:38:18.464Z,0.00
2019-05-11T04:39:19.169Z,0.00
2019-05-11T04:40:18.767Z,0.00
2019-05-11T04:41:18.065Z,0.00
2019-05-11T04:42:18.064Z,0.00
2019-05-11T04:43:18.081Z,0.00
2019-05-11T04:44:18.029Z,0.00
2019-05-11T04:45:18.129Z,0.00
2019-05-11T04:46:18.696Z,0.00
2019-05-11T04:47:18.365Z,0.29
2019-05-11T04:48:18.205Z,0.04
2019-05-11T04:49:18.089Z,0.00
2019-05-11T04:50:18.033Z,0.00
2019-05-11T04:51:18.254Z,0.00
2019-05-11T04:52:18.077Z,0.16
2019-05-11T04:53:18.359Z,0.12
2019-05-11T04:54:18.090Z,0.00
2019-05-11T04:55:18.074Z,0.00
2019-05-11T04:56:18.083Z,0.00
2019-05-11T04:57:19.156Z,0.00
2019-05-11T04:58:18.057Z,0.10
2019-05-11T04:59:18.034Z,0.01
2019-05-11T05:00:18.444Z,0.00
2019-05-11T05:01:18.107Z,0.00
2019-05-11T05:02:18.379Z,0.31
2019-05-11T05:03:18.127Z,0.29
2019-05-11T05:04:18.090Z,0.00
2019-05-11T05:05:18.387Z,0.00
2019-05-11T05:06:22.595Z,0.29
2019-05-11T05:07:18.532Z,0.00
2019-05-11T05:08:21.242Z,0.92
2019-05-11T05:09:18.488Z,0.00
2019-05-11T05:10:20.295Z,0.37
2019-05-11T05:11:19.316Z,0.34
2019-05-11T05:12:18.116Z,0.11
2019-05-11T05:13:23.267Z,0.18
2019-05-11T05:14:18.086Z,0.29
2019-05-11T05:15:18.946Z,0.34
2019-05-11T05:16:18.099Z,0.83
2019-05-11T05:17:18.396Z,1.00
2019-05-11T05:18:18.861Z,0.60
2019-05-11T05:19:18.948Z,0.46
2019-05-11T05:20:18.172Z,0.18
2019-05-11T05:21:18.156Z,1.01
2019-05-11T05:22:18.108Z,1.13
2019-05-11T05:23:18.674Z,0.31
2019-05-11T05:24:18.124Z,0.00
2019-05-11T05:25:18.127Z,0.30
2019-05-11T05:26:18.074Z,0.09
2019-05-11T05:27:18.057Z,0.41
2019-05-11T05:28:18.466Z,0.00
2019-05-11T05:29:18.114Z,0.74
2019-05-11T05:30:18.096Z,0.32
2019-05-11T05:31:18.744Z,0.46
2019-05-11T05:32:19.102Z,0.00
2019-05-11T05:33:18.053Z,0.00
2019-05-11T05:34:18.861Z,0.00
2019-05-11T05:35:18.117Z,0.18
2019-05-11T05:36:21.048Z,0.07
2019-05-11T05:37:18.632Z,0.09
2019-05-11T05:38:18.131Z,0.02
2019-05-11T05:39:18.225Z,0.01
2019-05-11T05:40:18.487Z,0.01
2019-05-11T05:41:18.319Z,0.29
2019-05-11T05:42:18.074Z,0.29
2019-05-11T05:43:28.124Z,0.02
2019-05-11T05:44:18.429Z,0.00
2019-05-11T05:45:18.073Z,0.00
2019-05-11T05:46:18.433Z,0.46
2019-05-11T05:47:18.414Z,0.33
2019-05-11T05:48:18.085Z,0.32
2019-05-11T05:49:18.482Z,0.00
2019-05-11T05:50:18.109Z,0.99
2019-05-11T05:51:18.087Z,0.18
2019-05-11T05:52:20.974Z,0.35
2019-05-11T05:53:18.211Z,0.07
2019-05-11T05:54:18.231Z,0.00
2019-05-11T05:55:18.411Z,0.00
2019-05-11T05:56:18.104Z,0.05
2019-05-11T05:57:18.155Z,0.77
2019-05-11T05:58:18.137Z,0.39
2019-05-11T05:59:18.361Z,0.29
2019-05-11T06:00:18.107Z,0.48
2019-05-11T06:01:18.991Z,1.02
2019-05-11T06:02:18.993Z,0.92
2019-05-11T06:03:18.115Z,0.30
2019-05-11T06:04:18.203Z,0.05
2019-05-11T06:05:18.755Z,0.28
2019-05-11T06:06:18.163Z,0.20
2019-05-11T06:07:18.228Z,0.00
2019-05-11T06:08:18.165Z,0.26
2019-05-11T06:09:18.769Z,0.26
2019-05-11T06:10:18.247Z,1.10
2019-05-11T06:11:18.141Z,1.40
2019-05-11T06:12:19.038Z,0.03
2019-05-11T06:13:18.163Z,0.22
2019-05-11T06:14:20.025Z,0.00
2019-05-11T06:15:18.571Z,0.39
2019-05-11T06:16:18.110Z,0.68
2019-05-11T06:17:18.153Z,0.32
2019-05-11T06:18:18.679Z,0.35
2019-05-11T06:19:18.257Z,0.38
2019-05-11T06:20:18.285Z,0.18
2019-05-11T06:21:18.949Z,0.50
2019-05-11T06:22:19.344Z,0.48
2019-05-11T06:23:18.497Z,0.29
2019-05-11T06:24:19.132Z,0.11
2019-05-11T06:25:18.576Z,0.06
2019-05-11T06:26:18.948Z,0.00
2019-05-11T06:27:18.674Z,0.00
2019-05-11T06:28:18.095Z,0.07
2019-05-11T06:29:21.473Z,0.67
2019-05-11T06:30:18.867Z,0.39
2019-05-11T06:31:18.147Z,0.20
2019-05-11T06:32:19.256Z,0.78
2019-05-11T06:33:18.779Z,0.77
2019-05-11T06:34:18.463Z,0.93
2019-05-11T06:35:18.183Z,0.40
2019-05-11T06:36:18.176Z,0.07
2019-05-11T06:37:18.143Z,0.00
2019-05-11T06:38:18.188Z,0.00
2019-05-11T06:39:18.217Z,0.48
2019-05-11T06:40:18.115Z,0.78
2019-05-11T06:41:18.943Z,0.69
2019-05-11T06:42:18.503Z,0.62
2019-05-11T06:43:19.092Z,0.57
2019-05-11T06:44:18.231Z,0.63
2019-05-11T06:45:19.167Z,0.54
2019-05-11T06:46:18.124Z,0.07
2019-05-11T06:47:18.569Z,2.02
2019-05-11T06:48:18.282Z,0.48
2019-05-11T06:49:18.191Z,0.00
2019-05-11T06:50:18.230Z,0.29
2019-05-11T06:51:18.192Z,0.67
2019-05-11T06:52:18.143Z,0.34
2019-05-11T06:53:18.220Z,0.78
2019-05-11T06:54:18.313Z,0.66
2019-05-11T06:55:18.583Z,0.69
2019-05-11T06:56:18.464Z,1.34
2019-05-11T06:57:18.934Z,0.73
2019-05-11T06:58:18.275Z,0.72
2019-05-11T06:59:18.296Z,0.95
2019-05-11T07:00:18.342Z,1.84
2019-05-11T07:01:18.165Z,1.14
2019-05-11T07:02:18.193Z,0.20
2019-05-11T07:03:18.206Z,0.50
2019-05-11T07:04:18.244Z,0.59
2019-05-11T07:05:18.220Z,0.78
2019-05-11T07:06:18.817Z,1.13
2019-05-11T07:07:18.503Z,1.09
2019-05-11T07:08:18.760Z,0.66
2019-05-11T07:09:18.660Z,0.53
2019-05-11T07:10:18.196Z,0.36
2019-05-11T07:11:18.446Z,0.82
2019-05-11T07:12:18.289Z,0.81
2019-05-11T07:13:18.914Z,0.57
2019-05-11T07:14:21.030Z,0.16
2019-05-11T07:15:21.764Z,0.32
2019-05-11T07:16:18.358Z,0.54
2019-05-11T07:17:18.613Z,1.02
2019-05-11T07:18:18.605Z,0.74
2019-05-11T07:19:18.222Z,0.40
2019-05-11T07:20:18.300Z,0.22
2019-05-11T07:21:18.318Z,0.33
2019-05-11T07:22:18.197Z,0.06
2019-05-11T07:23:18.614Z,0.09
2019-05-11T07:24:21.307Z,0.17
2019-05-11T07:25:18.294Z,0.02
2019-05-11T07:26:19.097Z,0.99
2019-05-11T07:27:18.246Z,0.82
2019-05-11T07:28:18.267Z,0.37
2019-05-11T07:29:18.291Z,0.69
2019-05-11T07:30:18.276Z,0.66
2019-05-11T07:31:18.186Z,0.53
2019-05-11T07:32:25.022Z,1.24
2019-05-11T07:33:18.945Z,0.64
2019-05-11T07:34:18.579Z,0.88
2019-05-11T07:35:18.889Z,0.59
2019-05-11T07:36:19.307Z,0.37
2019-05-11T07:37:18.676Z,0.63
2019-05-11T07:38:21.034Z,0.62
2019-05-11T07:39:18.990Z,0.13
2019-05-11T07:40:18.975Z,0.09
2019-05-11T07:41:18.184Z,1.23
2019-05-11T07:42:18.263Z,0.34
2019-05-11T07:43:18.932Z,0.66
2019-05-11T07:44:33.790Z,0.13
2019-05-11T07:45:19.326Z,0.19
2019-05-11T07:46:18.860Z,0.74
2019-05-11T07:47:18.810Z,1.68
2019-05-11T07:48:18.773Z,0.37
2019-05-11T07:49:18.757Z,1.01
2019-05-11T07:50:18.756Z,0.85
2019-05-11T07:51:18.443Z,0.75
2019-05-11T07:52:18.326Z,0.30
2019-05-11T07:53:18.771Z,0.85
2019-05-11T07:54:19.004Z,1.43
2019-05-11T07:55:19.059Z,0.94
2019-05-11T07:56:18.908Z,0.67
2019-05-11T07:57:18.725Z,0.50
2019-05-11T07:58:20.301Z,1.40
2019-05-11T07:59:19.168Z,0.84
2019-05-11T08:00:19.024Z,1.06
2019-05-11T08:01:19.203Z,0.61
2019-05-11T08:02:18.211Z,0.52
2019-05-11T08:03:18.310Z,0.77
2019-05-11T08:04:18.492Z,0.69
2019-05-11T08:05:18.835Z,0.30
2019-05-11T08:06:18.640Z,1.39
2019-05-11T08:07:18.472Z,0.70
2019-05-11T08:08:18.257Z,1.20
2019-05-11T08:09:19.259Z,0.50
2019-05-11T08:10:18.694Z,0.68
2019-05-11T08:11:18.446Z,1.30
2019-05-11T08:12:19.307Z,0.95
2019-05-11T08:13:19.409Z,0.92
2019-05-11T08:14:18.461Z,1.11
2019-05-11T08:15:19.060Z,1.61
2019-05-11T08:16:19.308Z,1.65
2019-05-11T08:17:18.727Z,1.30
2019-05-11T08:18:19.000Z,1.18
2019-05-11T08:19:18.706Z,0.55
2019-05-11T08:20:18.765Z,2.16
2019-05-11T08:21:18.305Z,1.58
2019-05-11T08:22:22.776Z,2.18
2019-05-11T08:23:18.582Z,1.54
2019-05-11T08:24:18.537Z,1.14
2019-05-11T08:25:19.442Z,0.52
2019-05-11T08:26:20.815Z,1.43
2019-05-11T08:27:18.768Z,0.73
2019-05-11T08:28:19.015Z,1.60
2019-05-11T08:29:18.683Z,1.91
2019-05-11T08:30:18.945Z,0.41
2019-05-11T08:31:18.832Z,0.36
2019-05-11T08:32:18.614Z,1.96
2019-05-11T08:33:18.685Z,0.90
2019-05-11T08:34:19.547Z,1.47
2019-05-11T08:35:21.277Z,0.49
2019-05-11T08:36:18.635Z,1.10
2019-05-11T08:37:19.035Z,1.31
2019-05-11T08:38:18.309Z,1.96
2019-05-11T08:39:18.463Z,1.10
2019-05-11T08:40:18.503Z,2.37
2019-05-11T08:41:18.654Z,1.86
2019-05-11T08:42:19.335Z,2.26
2019-05-11T08:43:19.509Z,1.69
2019-05-11T08:44:18.350Z,2.19
2019-05-11T08:45:24.025Z,1.90
2019-05-11T08:46:18.651Z,1.94
2019-05-11T08:47:18.633Z,1.78
2019-05-11T08:48:18.858Z,1.67
2019-05-11T08:49:19.153Z,1.57
2019-05-11T08:50:18.914Z,2.32
2019-05-11T08:51:18.824Z,1.52
2019-05-11T08:52:18.940Z,1.37
2019-05-11T08:53:18.293Z,1.66
2019-05-11T08:54:19.203Z,1.75
2019-05-11T08:55:19.146Z,2.55
2019-05-11T08:56:18.910Z,1.14
2019-05-11T08:57:18.387Z,0.06
2019-05-11T08:58:19.410Z,1.21
2019-05-11T08:59:18.778Z,1.79
2019-05-11T09:00:18.311Z,1.66
2019-05-11T09:01:18.645Z,1.95
2019-05-11T09:02:18.717Z,1.67
2019-05-11T09:03:18.372Z,1.70
2019-05-11T09:04:18.459Z,2.76
2019-05-11T09:05:18.859Z,2.63
2019-05-11T09:06:18.291Z,1.90
2019-05-11T09:07:18.883Z,1.04
2019-05-11T09:08:19.365Z,1.54
2019-05-11T09:09:18.301Z,1.18
2019-05-11T09:10:18.740Z,0.63
2019-05-11T09:11:19.014Z,0.84
2019-05-11T09:12:18.899Z,1.87
2019-05-11T09:13:18.693Z,1.56
2019-05-11T09:14:18.973Z,1.74
2019-05-11T09:15:32.631Z,0.85
2019-05-11T09:16:19.186Z,1.58
2019-05-11T09:17:18.381Z,2.72
2019-05-11T09:18:18.890Z,2.42
2019-05-11T09:19:18.371Z,2.79
2019-05-11T09:20:18.415Z,2.61
2019-05-11T09:21:19.067Z,2.61
2019-05-11T09:22:18.848Z,2.15
2019-05-11T09:23:32.897Z,2.30
2019-05-11T09:24:19.051Z,2.57
2019-05-11T09:25:18.621Z,1.44
2019-05-11T09:26:18.487Z,1.65
2019-05-11T09:27:18.595Z,0.86
2019-05-11T09:28:18.484Z,1.34
2019-05-11T09:29:18.556Z,1.67
2019-05-11T09:30:18.670Z,1.69
2019-05-11T09:31:18.983Z,0.89
2019-05-11T09:32:18.704Z,0.95
2019-05-11T09:33:20.576Z,1.39
2019-05-11T09:34:18.741Z,1.53
2019-05-11T09:35:19.068Z,1.98
2019-05-11T09:36:18.362Z,1.75
2019-05-11T09:37:20.874Z,1.17
2019-05-11T09:38:18.726Z,1.59
2019-05-11T09:39:18.336Z,2.82
2019-05-11T09:40:18.906Z,2.55
2019-05-11T09:41:18.717Z,1.95
2019-05-11T09:42:19.064Z,3.62
2019-05-11T09:43:19.476Z,3.32
2019-05-11T09:44:19.306Z,1.12
2019-05-11T09:45:19.151Z,1.63
2019-05-11T09:46:19.118Z,1.45
2019-05-11T09:47:19.044Z,1.93
2019-05-11T09:48:18.354Z,1.36
2019-05-11T09:49:18.720Z,1.13
2019-05-11T09:50:18.461Z,1.91
2019-05-11T09:51:18.690Z,1.23
2019-05-11T09:52:18.513Z,1.96
2019-05-11T09:53:18.390Z,1.73
2019-05-11T09:54:19.055Z,2.52
2019-05-11T09:55:19.330Z,2.35
2019-05-11T09:56:19.354Z,1.54
2019-05-11T09:57:18.924Z,2.61
2019-05-11T09:58:19.905Z,1.59
2019-05-11T09:59:18.504Z,1.12
2019-05-11T10:00:18.388Z,1.54
2019-05-11T10:01:18.686Z,1.62
2019-05-11T10:02:21.093Z,1.42
2019-05-11T10:03:19.212Z,1.99
2019-05-11T10:04:19.247Z,1.80
2019-05-11T10:05:19.107Z,1.81
2019-05-11T10:06:19.117Z,1.36
2019-05-11T10:07:18.346Z,1.84
2019-05-11T10:08:18.532Z,1.27
2019-05-11T10:09:18.812Z,1.77
2019-05-11T10:10:18.885Z,1.85
2019-05-11T10:11:19.683Z,1.88
2019-05-11T10:12:18.411Z,1.89
2019-05-11T10:13:18.681Z,1.20
2019-05-11T10:14:19.229Z,1.54
2019-05-11T10:15:18.855Z,2.07
2019-05-11T10:16:18.393Z,1.56
2019-05-11T10:17:18.336Z,0.25
2019-05-11T10:18:18.976Z,1.03
2019-05-11T10:19:18.496Z,0.62
2019-05-11T10:20:18.451Z,1.43
2019-05-11T10:21:18.916Z,2.26
2019-05-11T10:22:19.158Z,1.66
2019-05-11T10:23:18.778Z,2.65
2019-05-11T10:24:18.428Z,2.33
2019-05-11T10:25:18.998Z,2.14
2019-05-11T10:26:19.062Z,3.35
2019-05-11T10:27:22.340Z,2.93
2019-05-11T10:28:19.096Z,1.95
2019-05-11T10:29:18.935Z,1.60
2019-05-11T10:30:18.853Z,1.54
2019-05-11T10:31:18.711Z,3.36
2019-05-11T10:32:18.486Z,1.60
2019-05-11T10:33:18.949Z,1.94
2019-05-11T10:34:19.112Z,1.04
2019-05-11T10:35:18.614Z,1.79
2019-05-11T10:36:19.038Z,1.17
2019-05-11T10:37:18.457Z,1.26
2019-05-11T10:38:18.466Z,2.08
2019-05-11T10:39:19.168Z,1.40
2019-05-11T10:40:19.119Z,2.54
2019-05-11T10:41:19.389Z,2.00
2019-05-11T10:42:18.766Z,1.53
2019-05-11T10:43:18.511Z,1.81
2019-05-11T10:44:18.975Z,2.21
2019-05-11T10:45:18.458Z,2.24
2019-05-11T10:46:23.973Z,2.10
2019-05-11T10:47:18.608Z,2.00
2019-05-11T10:48:18.535Z,0.93
2019-05-11T10:49:20.045Z,1.65
2019-05-11T10:50:18.867Z,2.52
2019-05-11T10:51:18.632Z,2.00
2019-05-11T10:52:18.587Z,1.26
2019-05-11T10:53:18.842Z,2.23
2019-05-11T10:54:18.923Z,1.60
2019-05-11T10:55:21.053Z,0.91
2019-05-11T10:56:28.477Z,1.31
2019-05-11T10:57:19.036Z,1.91
2019-05-11T10:58:21.224Z,1.29
2019-05-11T10:59:19.591Z,1.60
2019-05-11T11:00:18.737Z,2.13
2019-05-11T11:01:19.386Z,1.87
2019-05-11T11:02:18.648Z,1.49
2019-05-11T11:03:18.496Z,2.12
2019-05-11T11:04:18.789Z,1.32
2019-05-11T11:05:18.897Z,1.58
2019-05-11T11:06:19.407Z,1.70
2019-05-11T11:07:19.486Z,2.32
2019-05-11T11:08:20.043Z,2.57
2019-05-11T11:09:19.454Z,0.92
2019-05-11T11:10:19.047Z,2.83
2019-05-11T11:11:18.749Z,1.33
2019-05-11T11:12:18.906Z,1.99
2019-05-11T11:13:18.939Z,1.32
2019-05-11T11:14:18.550Z,2.07
2019-05-11T11:15:18.497Z,2.59
2019-05-11T11:16:35.285Z,1.65
2019-05-11T11:17:21.281Z,1.12
2019-05-11T11:18:19.001Z,1.47
2019-05-11T11:19:21.297Z,1.20
2019-05-11T11:20:18.800Z,1.72
2019-05-11T11:21:22.491Z,1.63
2019-05-11T11:22:36.068Z,1.70
2019-05-11T11:23:18.834Z,2.06
2019-05-11T11:24:19.422Z,2.15
2019-05-11T11:25:19.291Z,1.77
2019-05-11T11:26:18.661Z,1.23
2019-05-11T11:27:18.625Z,1.25
2019-05-11T11:28:19.071Z,1.47
2019-05-11T11:29:18.551Z,1.61
2019-05-11T11:30:19.526Z,1.37
2019-05-11T11:31:19.035Z,1.12
2019-05-11T11:32:19.155Z,1.35
2019-05-11T11:33:18.532Z,1.18
2019-05-11T11:34:18.959Z,1.13
2019-05-11T11:35:18.873Z,1.21
2019-05-11T11:36:18.633Z,1.02
2019-05-11T11:37:18.467Z,1.07
2019-05-11T11:38:18.548Z,1.69
2019-05-11T11:39:18.825Z,2.17
2019-05-11T11:40:19.434Z,2.72
2019-05-11T11:41:18.882Z,1.73
2019-05-11T11:42:18.524Z,2.47
2019-05-11T11:43:18.502Z,1.43
2019-05-11T11:44:18.657Z,1.19
2019-05-11T11:45:18.594Z,0.93
2019-05-11T11:46:21.070Z,1.66
2019-05-11T11:47:21.695Z,1.40
2019-05-11T11:48:19.067Z,1.77
2019-05-11T11:49:18.994Z,1.54
2019-05-11T11:50:18.486Z,1.74
2019-05-11T11:51:19.311Z,1.06
2019-05-11T11:52:18.854Z,1.70
2019-05-11T11:53:18.894Z,1.53
2019-05-11T11:54:18.630Z,1.53
2019-05-11T11:55:18.872Z,2.28
2019-05-11T11:56:19.395Z,2.37
2019-05-11T11:57:18.581Z,2.45
2019-05-11T11:58:23.477Z,1.17
2019-05-11T11:59:18.500Z,1.86
2019-05-11T12:00:19.286Z,1.35
2019-05-11T12:01:19.146Z,1.52
2019-05-11T12:02:19.031Z,1.01
2019-05-11T12:03:18.667Z,1.52
2019-05-11T12:04:18.916Z,1.15
2019-05-11T12:05:18.832Z,1.94
2019-05-11T12:06:19.279Z,2.45
2019-05-11T12:07:18.529Z,1.97
2019-05-11T12:08:19.037Z,1.33
2019-05-11T12:09:21.434Z,1.71
2019-05-11T12:10:18.582Z,1.59
2019-05-11T12:11:18.941Z,0.98
2019-05-11T12:12:18.729Z,2.40
2019-05-11T12:13:19.266Z,2.62
2019-05-11T12:14:18.819Z,2.31
2019-05-11T12:15:18.718Z,1.83
2019-05-11T12:16:18.570Z,1.51
2019-05-11T12:17:18.832Z,1.62
2019-05-11T12:18:18.622Z,1.53
2019-05-11T12:19:19.370Z,1.46
2019-05-11T12:20:18.555Z,2.58
2019-05-11T12:21:18.843Z,2.29
2019-05-11T12:22:19.276Z,1.61
2019-05-11T12:23:18.556Z,2.17
2019-05-11T12:24:18.877Z,1.14
2019-05-11T12:25:18.912Z,1.97
2019-05-11T12:26:18.542Z,1.57
2019-05-11T12:27:19.261Z,1.58
2019-05-11T12:28:18.613Z,1.67
2019-05-11T12:29:18.949Z,2.17
2019-05-11T12:30:18.622Z,1.53
2019-05-11T12:31:18.744Z,2.38
2019-05-11T12:32:18.650Z,1.35
2019-05-11T12:33:18.885Z,2.96
2019-05-11T12:34:19.331Z,2.61
2019-05-11T12:35:19.102Z,2.36
2019-05-11T12:36:19.078Z,2.38
2019-05-11T12:37:21.979Z,1.47
2019-05-11T12:38:21.107Z,1.45
2019-05-11T12:39:19.306Z,1.02
2019-05-11T12:40:18.615Z,0.81
2019-05-11T12:41:19.308Z,1.73
2019-05-11T12:42:18.515Z,2.25
2019-05-11T12:43:20.707Z,2.99
2019-05-11T12:44:18.981Z,1.83
2019-05-11T12:45:18.525Z,2.58
2019-05-11T12:46:19.354Z,1.79
2019-05-11T12:47:24.812Z,2.46
2019-05-11T12:48:18.534Z,2.06
2019-05-11T12:49:19.230Z,1.72
2019-05-11T12:50:18.873Z,2.17
2019-05-11T12:51:18.938Z,2.63
2019-05-11T12:52:18.690Z,2.13
2019-05-11T12:53:18.754Z,2.52
2019-05-11T12:54:18.833Z,2.41
2019-05-11T12:55:19.398Z,2.21
2019-05-11T12:56:19.146Z,2.23
2019-05-11T12:57:18.809Z,2.13
2019-05-11T12:58:19.326Z,1.67
2019-05-11T12:59:18.903Z,1.23
2019-05-11T13:00:18.589Z,1.43
2019-05-11T13:01:19.067Z,1.74
2019-05-11T13:02:18.604Z,2.45
2019-05-11T13:03:18.844Z,2.75
2019-05-11T13:04:18.601Z,1.85
2019-05-11T13:05:18.637Z,2.24
2019-05-11T13:06:19.216Z,1.70
2019-05-11T13:07:19.634Z,2.01
2019-05-11T13:08:18.896Z,1.97
2019-05-11T13:09:19.041Z,2.00
2019-05-11T13:10:19.413Z,1.72
2019-05-11T13:11:19.441Z,1.51
2019-05-11T13:12:18.689Z,1.75
2019-05-11T13:13:18.647Z,1.78
2019-05-11T13:14:18.678Z,0.81
2019-05-11T13:15:18.593Z,1.42
2019-05-11T13:16:18.963Z,1.68
2019-05-11T13:17:32.927Z,1.74
2019-05-11T13:18:18.746Z,1.58